Cedar Island, NC (28520)

5:29 PM EDT on September 04, 2015 (GMT -0400)
Core Sound's 2 West Shore Heel of Rock Jetty | | Change Station
CLOSE
Current Station
Personal Weather Station
Location: Davis, NC
Elevation: 13 ft
Nearby Weather Stations

Elev 13 ft 34.80 °N, 76.46 °W | Updated 4 minutes ago

Clear
Clear
87.2 °F
Feels Like 99 °F
N
3.0
Wind Variable Wind from SW
Gusts 4.0 mph

Today
High -- | Low -- °F
--% Chance of Precip.
Yesterday
High -- | Low -- °F
Precip. -- in
6:40 AM 7:28 PM
Waning Gibbous, 56% visible
Pressure 29.94 in
Visibility 10.0 miles
Clouds Scattered Clouds 5000 ft
Heat Index 99 °F
Dew Point 77 °F
Humidity 71%
Rainfall 0.00 in
Snow Depth Not available.
UV 3 out of 12
Pollen 8.60 out of 12
Air Quality Not available.
Flu Activity Not available.
METAR KMRH 042058Z AUTO 19007KT 10SM SCT050 29/24 A2993 RMK AO2 SLP136 T02940244 56010 TSNO
Pressure 29.94 in
Visibility 10.0 miles
Clouds Scattered Clouds 5000 ft
Heat Index 99 °F
Dew Point 77 °F
Humidity 71%
Rainfall 0.00 in
Snow Depth Not available.
UV 3 out of 12
Pollen 8.60 out of 12
Air Quality Not available.
Flu Activity Not available.
METAR KMRH 042058Z AUTO 19007KT 10SM SCT050 29/24 A2993 RMK AO2 SLP136 T02940244 56010 TSNO

10-Day Weather Forecast

×

Almanac

Astronomy

Sep. 04, 2015 Rise Set
Actual Time
Civil Twilight
Nautical Twilight
Astronomical Twilight
Moon
Length of Visible Light
Length of Day
Tomorrow will be .
, % of the Moon is Illuminated

Today's Extremes

State Highs State Lows

Community

WunderPhotos

Upload Photos

1,852,297 photos uploaded!

WunderBlogs® & News

Nearby

Air Quality

  Air Quality AQ Index Pollutant
Not available.

Snow Depth

Station Depth Elevation

Earthquake Activity

City Distance Mag. Time & Date
Minimum magnitude displayed is 2.5.

Coastal Water Temperatures

Place Temperature

Stations

Nearby Weather Stations

Station Location Temp. Windchill Dew Point Humidity Wind Precip. Elev Updated Type